createdAt,value
2022-09-30T00:01:36.432Z,100.00
2022-09-30T00:04:04.928Z,100.00
2022-09-30T00:06:35.048Z,100.00
2022-09-30T00:09:04.407Z,100.00
2022-09-30T00:11:36.079Z,100.00
2022-09-30T00:14:04.017Z,100.00
2022-09-30T00:16:34.403Z,100.00
2022-09-30T00:19:04.181Z,100.00
2022-09-30T00:21:33.848Z,100.00
2022-09-30T00:24:02.267Z,100.00
2022-09-30T00:26:29.900Z,100.00
2022-09-30T00:29:00.701Z,100.00
2022-09-30T00:31:31.066Z,100.00
2022-09-30T00:34:08.240Z,100.00
2022-09-30T00:36:38.115Z,100.00
2022-09-30T00:39:08.086Z,100.00
2022-09-30T00:41:36.219Z,100.00
2022-09-30T00:44:37.554Z,100.00
2022-09-30T00:47:12.819Z,100.00
2022-09-30T00:49:40.406Z,100.00
2022-09-30T00:52:08.136Z,100.00
2022-09-30T00:54:35.902Z,100.00
2022-09-30T00:57:05.106Z,100.00
2022-09-30T00:59:38.137Z,100.00
2022-09-30T01:02:07.399Z,100.00
2022-09-30T01:04:36.040Z,100.00
2022-09-30T01:07:06.516Z,100.00
2022-09-30T01:09:35.420Z,100.00
2022-09-30T01:12:05.911Z,100.00
2022-09-30T01:14:33.773Z,100.00
2022-09-30T01:17:06.985Z,100.00
2022-09-30T01:19:58.275Z,100.00
2022-09-30T01:22:42.324Z,100.00
2022-09-30T01:25:46.377Z,100.00
2022-09-30T01:28:38.743Z,100.00
2022-09-30T01:31:14.839Z,100.00
2022-09-30T01:33:55.219Z,100.00
2022-09-30T01:36:39.059Z,100.00
2022-09-30T01:39:22.353Z,100.00
2022-09-30T01:41:56.842Z,100.00
2022-09-30T01:44:35.006Z,100.00
2022-09-30T01:47:11.932Z,100.00
2022-09-30T01:49:44.912Z,100.00
2022-09-30T01:52:17.487Z,100.00
2022-09-30T01:54:54.220Z,100.00
2022-09-30T01:57:29.777Z,100.00
2022-09-30T02:00:03.164Z,100.00
2022-09-30T02:02:48.511Z,100.00
2022-09-30T02:05:21.202Z,100.00
2022-09-30T02:07:54.491Z,100.00
2022-09-30T02:10:26.462Z,100.00
2022-09-30T02:13:04.791Z,100.00
2022-09-30T02:15:40.355Z,100.00
2022-09-30T02:18:19.800Z,100.00
2022-09-30T02:20:52.942Z,100.00
2022-09-30T02:23:25.769Z,100.00
2022-09-30T02:26:00.119Z,100.00
2022-09-30T02:28:30.309Z,100.00
2022-09-30T02:31:02.458Z,100.00
2022-09-30T02:33:35.907Z,100.00
2022-09-30T02:36:09.050Z,100.00
2022-09-30T02:38:42.053Z,100.00
2022-09-30T02:41:13.811Z,100.00
2022-09-30T02:43:42.225Z,100.00
2022-09-30T02:46:24.104Z,100.00
2022-09-30T02:49:00.466Z,100.00
2022-09-30T02:51:36.760Z,100.00
2022-09-30T02:54:14.992Z,100.00
2022-09-30T02:56:54.008Z,100.00
2022-09-30T02:59:22.596Z,100.00
2022-09-30T03:01:50.682Z,100.00
2022-09-30T03:04:24.053Z,100.00
2022-09-30T03:06:52.009Z,100.00
2022-09-30T03:09:19.731Z,100.00
2022-09-30T03:11:48.687Z,100.00
2022-09-30T03:14:36.886Z,100.00
2022-09-30T03:17:33.373Z,100.00
2022-09-30T03:20:17.744Z,100.00
2022-09-30T03:23:06.683Z,100.00
2022-09-30T03:25:47.156Z,100.00
2022-09-30T03:28:23.336Z,100.00
2022-09-30T03:31:00.250Z,100.00
2022-09-30T03:33:38.190Z,100.00
2022-09-30T03:36:16.307Z,100.00
2022-09-30T03:38:51.986Z,100.00
2022-09-30T03:41:27.294Z,100.00
2022-09-30T03:44:02.188Z,100.00
2022-09-30T03:46:35.407Z,100.00
2022-09-30T03:49:06.806Z,100.00
2022-09-30T03:51:37.445Z,100.00
2022-09-30T03:54:08.860Z,100.00
2022-09-30T03:56:39.193Z,100.00
2022-09-30T03:59:06.833Z,100.00
2022-09-30T04:01:34.444Z,100.00
2022-09-30T04:04:02.483Z,100.00
2022-09-30T04:06:29.995Z,100.00
2022-09-30T04:08:58.948Z,100.00
2022-09-30T04:11:26.661Z,100.00
2022-09-30T04:13:54.228Z,100.00
2022-09-30T04:16:22.046Z,100.00
2022-09-30T04:18:49.640Z,100.00
2022-09-30T04:21:17.538Z,100.00
2022-09-30T04:23:45.050Z,100.00
2022-09-30T04:26:15.930Z,100.00
2022-09-30T04:28:43.814Z,100.00
2022-09-30T04:31:13.043Z,100.00
2022-09-30T04:33:41.455Z,100.00
2022-09-30T04:36:09.530Z,100.00
2022-09-30T04:38:37.222Z,100.00
2022-09-30T04:41:06.310Z,100.00
2022-09-30T04:43:35.579Z,100.00
2022-09-30T04:46:03.253Z,100.00
2022-09-30T04:48:32.285Z,100.00
2022-09-30T04:51:00.854Z,100.00
2022-09-30T04:53:29.241Z,100.00
2022-09-30T04:56:00.911Z,100.00
2022-09-30T04:58:32.254Z,100.00
2022-09-30T05:01:04.855Z,100.00
2022-09-30T05:03:32.640Z,100.00
2022-09-30T05:06:00.206Z,100.00
2022-09-30T05:08:27.859Z,100.00
2022-09-30T05:10:57.389Z,100.00
2022-09-30T05:13:26.544Z,100.00
2022-09-30T05:15:54.117Z,100.00
2022-09-30T05:18:26.302Z,100.00
2022-09-30T05:20:54.887Z,100.00
2022-09-30T05:23:22.804Z,100.00
2022-09-30T05:25:51.939Z,100.00
2022-09-30T05:28:19.748Z,100.00
2022-09-30T05:30:47.953Z,100.00
2022-09-30T05:33:15.579Z,100.00
2022-09-30T05:35:44.939Z,100.00
2022-09-30T05:38:12.762Z,100.00
2022-09-30T05:40:40.981Z,100.00
2022-09-30T05:43:08.577Z,100.00
2022-09-30T05:45:36.216Z,100.00
2022-09-30T05:48:03.923Z,100.00
2022-09-30T05:50:31.780Z,100.00
2022-09-30T05:53:01.737Z,100.00
2022-09-30T05:55:29.487Z,100.00
2022-09-30T05:57:57.280Z,100.00
2022-09-30T06:00:24.956Z,100.00
2022-09-30T06:02:53.251Z,100.00
2022-09-30T06:05:22.037Z,100.00
2022-09-30T06:07:50.400Z,100.00
2022-09-30T06:10:19.369Z,100.00
2022-09-30T06:12:46.945Z,100.00
2022-09-30T06:15:14.538Z,100.00
2022-09-30T06:17:42.542Z,100.00
2022-09-30T06:20:11.352Z,100.00
2022-09-30T06:22:39.487Z,100.00
2022-09-30T06:25:07.843Z,100.00
2022-09-30T06:27:38.114Z,100.00
2022-09-30T06:30:07.099Z,100.00
2022-09-30T06:32:34.848Z,100.00
2022-09-30T06:35:03.740Z,100.00
2022-09-30T06:37:31.303Z,100.00
2022-09-30T06:39:58.862Z,100.00
2022-09-30T06:42:26.384Z,100.00
2022-09-30T06:44:55.662Z,100.00
2022-09-30T06:47:25.774Z,100.00
2022-09-30T06:49:58.368Z,100.00
2022-09-30T06:52:27.237Z,100.00
2022-09-30T06:54:56.390Z,100.00
2022-09-30T06:57:25.136Z,100.00
2022-09-30T06:59:52.960Z,100.00
2022-09-30T07:02:22.241Z,100.00
2022-09-30T07:04:50.181Z,100.00
2022-09-30T07:07:22.128Z,100.00
2022-09-30T07:09:50.003Z,100.00
2022-09-30T07:12:17.627Z,100.00
2022-09-30T07:14:45.308Z,100.00
2022-09-30T07:17:12.827Z,100.00
2022-09-30T07:19:41.741Z,100.00
2022-09-30T07:22:26.820Z,100.00
2022-09-30T07:24:54.750Z,100.00
2022-09-30T07:27:22.613Z,100.00
2022-09-30T07:30:08.252Z,100.00
2022-09-30T07:32:37.775Z,100.00
2022-09-30T07:35:07.305Z,100.00
2022-09-30T07:37:35.867Z,100.00
2022-09-30T07:40:06.542Z,100.00
2022-09-30T07:42:37.477Z,100.00
2022-09-30T07:45:06.169Z,100.00
2022-09-30T07:47:33.672Z,100.00
2022-09-30T07:50:01.267Z,100.00
2022-09-30T07:52:30.346Z,100.00
2022-09-30T07:54:57.873Z,100.00
2022-09-30T07:57:25.407Z,100.00
2022-09-30T07:59:53.057Z,100.00
2022-09-30T08:02:20.961Z,100.00
2022-09-30T08:04:48.753Z,100.00
2022-09-30T08:07:17.958Z,100.00
2022-09-30T08:09:47.121Z,100.00
2022-09-30T08:12:14.899Z,100.00
2022-09-30T08:14:44.476Z,100.00
2022-09-30T08:17:12.190Z,100.00
2022-09-30T08:19:43.888Z,100.00
2022-09-30T08:22:13.716Z,100.00
2022-09-30T08:24:41.262Z,100.00
2022-09-30T08:27:10.214Z,100.00
2022-09-30T08:32:25.542Z,100.00
2022-09-30T08:34:53.253Z,100.00
2022-09-30T08:37:20.793Z,100.00
2022-09-30T08:39:48.389Z,100.00
2022-09-30T08:42:38.029Z,100.00
2022-09-30T08:45:18.038Z,100.00
2022-09-30T08:47:57.570Z,100.00
2022-09-30T08:50:31.639Z,100.00
2022-09-30T08:53:02.426Z,100.00
2022-09-30T08:55:36.896Z,100.00
2022-09-30T08:58:08.175Z,100.00
2022-09-30T09:00:36.652Z,100.00
2022-09-30T09:03:04.960Z,100.00
2022-09-30T09:05:49.910Z,100.00
2022-09-30T09:08:30.460Z,100.00
2022-09-30T09:11:02.938Z,100.00
2022-09-30T09:13:46.223Z,100.00
2022-09-30T09:16:22.415Z,100.00
2022-09-30T09:19:00.156Z,100.00
2022-09-30T09:21:52.372Z,100.00
2022-09-30T09:24:22.176Z,100.00
2022-09-30T09:26:52.393Z,100.00
2022-09-30T09:29:28.894Z,100.00
2022-09-30T09:31:57.234Z,99.74
2022-09-30T09:34:26.976Z,99.95
2022-09-30T09:37:07.520Z,99.84
2022-09-30T09:40:04.558Z,98.41
2022-09-30T09:42:50.842Z,97.91
2022-09-30T09:45:29.329Z,95.99
2022-09-30T09:47:59.956Z,95.49
2022-09-30T09:50:40.632Z,94.75
2022-09-30T09:53:22.137Z,93.85
2022-09-30T09:55:54.865Z,93.77
2022-09-30T09:58:22.495Z,93.99
2022-09-30T10:01:19.987Z,93.35
2022-09-30T10:03:48.291Z,92.76
2022-09-30T10:06:16.025Z,91.25
2022-09-30T10:08:54.777Z,90.86
2022-09-30T10:11:24.720Z,90.70
2022-09-30T10:13:57.013Z,91.66
2022-09-30T10:16:31.876Z,91.08
2022-09-30T10:19:00.348Z,90.97
2022-09-30T10:21:30.045Z,90.83
2022-09-30T10:23:59.797Z,90.27
2022-09-30T10:26:28.714Z,89.04
2022-09-30T10:28:57.833Z,87.51
2022-09-30T10:31:29.538Z,86.71
2022-09-30T10:34:04.306Z,86.20
2022-09-30T10:36:34.240Z,85.59
2022-09-30T10:39:07.171Z,85.64
2022-09-30T10:41:36.797Z,86.04
2022-09-30T10:44:07.673Z,86.67
2022-09-30T10:46:40.353Z,85.93
2022-09-30T10:49:12.776Z,86.10
2022-09-30T10:51:41.569Z,87.49
2022-09-30T10:54:35.740Z,91.77
2022-09-30T10:57:04.403Z,93.59
2022-09-30T10:59:36.159Z,93.39
2022-09-30T11:02:26.358Z,92.87
2022-09-30T11:05:03.432Z,91.65
2022-09-30T11:07:34.592Z,91.57
2022-09-30T11:10:07.653Z,91.78
2022-09-30T11:12:44.523Z,91.48
2022-09-30T11:15:19.918Z,91.27
2022-09-30T11:17:55.733Z,90.80
2022-09-30T11:20:27.586Z,88.18
2022-09-30T11:23:02.568Z,88.31
2022-09-30T11:25:41.604Z,88.48
2022-09-30T11:28:48.770Z,87.00
2022-09-30T11:31:26.729Z,86.76
2022-09-30T11:34:10.268Z,86.82
2022-09-30T11:36:46.712Z,86.02
2022-09-30T11:39:31.765Z,85.23
2022-09-30T11:42:06.576Z,84.74
2022-09-30T11:44:36.296Z,83.66
2022-09-30T11:47:46.440Z,83.00
2022-09-30T11:50:39.948Z,82.27
2022-09-30T11:53:19.051Z,81.02
2022-09-30T11:56:04.319Z,78.38
2022-09-30T11:58:41.602Z,77.05
2022-09-30T12:01:22.766Z,77.84
2022-09-30T12:03:58.059Z,78.03
2022-09-30T12:06:32.936Z,78.75
2022-09-30T12:09:06.839Z,78.27
2022-09-30T12:11:40.612Z,78.69
2022-09-30T12:14:17.130Z,78.00
2022-09-30T12:16:47.881Z,76.61
2022-09-30T12:19:24.494Z,76.31
2022-09-30T12:21:59.828Z,75.95
2022-09-30T12:24:33.695Z,76.34
2022-09-30T12:27:01.894Z,76.24
2022-09-30T12:29:52.032Z,75.74
2022-09-30T12:32:37.249Z,75.06
2022-09-30T12:35:25.724Z,74.04
2022-09-30T12:38:12.947Z,73.84
2022-09-30T12:41:03.735Z,73.83
2022-09-30T12:44:06.760Z,73.50
2022-09-30T12:46:55.164Z,73.81
2022-09-30T12:49:26.003Z,72.53
2022-09-30T12:51:56.914Z,71.94
2022-09-30T12:54:29.830Z,71.64
2022-09-30T12:57:03.226Z,71.37
2022-09-30T12:59:34.842Z,71.59
2022-09-30T13:02:04.923Z,72.54
2022-09-30T13:04:35.907Z,71.65
2022-09-30T13:07:22.709Z,70.54
2022-09-30T13:10:01.229Z,70.57
2022-09-30T13:12:41.611Z,69.47
2022-09-30T13:15:24.980Z,70.21
2022-09-30T13:17:52.800Z,70.63
2022-09-30T13:20:55.050Z,70.25
2022-09-30T13:23:43.791Z,68.94
2022-09-30T13:26:38.075Z,67.41
2022-09-30T13:29:39.288Z,68.52
2022-09-30T13:32:11.535Z,69.43
2022-09-30T13:34:57.843Z,70.51
2022-09-30T13:37:40.402Z,70.58
2022-09-30T13:40:49.767Z,69.17
2022-09-30T13:43:21.218Z,67.81
2022-09-30T13:45:52.849Z,67.03
2022-09-30T13:48:26.734Z,66.88
2022-09-30T13:50:56.434Z,66.16
2022-09-30T13:53:30.428Z,66.30
2022-09-30T13:56:01.722Z,64.85
2022-09-30T13:58:52.702Z,65.02
2022-09-30T14:01:34.695Z,64.35
2022-09-30T14:04:23.132Z,64.81
2022-09-30T14:07:05.187Z,64.92
2022-09-30T14:09:39.466Z,64.08
2022-09-30T14:12:32.941Z,63.38
2022-09-30T14:15:31.701Z,63.95
2022-09-30T14:18:23.277Z,64.33
2022-09-30T14:21:06.053Z,63.91
2022-09-30T14:23:33.660Z,63.26
2022-09-30T14:26:16.217Z,63.51
2022-09-30T14:28:50.209Z,64.23
2022-09-30T14:31:20.333Z,63.05
2022-09-30T14:33:51.980Z,62.61
2022-09-30T14:36:23.203Z,62.26
2022-09-30T14:38:54.694Z,62.34
2022-09-30T14:41:24.199Z,62.08
2022-09-30T14:43:56.473Z,63.49
2022-09-30T14:46:31.812Z,64.07
2022-09-30T14:49:04.522Z,63.81
2022-09-30T14:51:38.091Z,63.73
2022-09-30T14:54:06.257Z,63.57
2022-09-30T14:56:36.443Z,62.61
2022-09-30T14:59:17.726Z,62.55
2022-09-30T15:01:48.709Z,62.97
2022-09-30T15:04:18.868Z,63.67
2022-09-30T15:06:49.456Z,64.30
2022-09-30T15:09:19.441Z,65.46
2022-09-30T15:11:48.474Z,65.75
2022-09-30T15:14:19.375Z,65.44
2022-09-30T15:16:50.648Z,66.04
2022-09-30T15:19:23.002Z,65.66
2022-09-30T15:21:53.097Z,66.04
2022-09-30T15:24:23.909Z,66.05
2022-09-30T15:26:53.514Z,65.94
2022-09-30T15:29:21.030Z,65.80
2022-09-30T15:31:55.038Z,64.97
2022-09-30T15:34:26.053Z,65.07
2022-09-30T15:36:59.683Z,65.13
2022-09-30T15:39:51.354Z,66.04
2022-09-30T15:42:36.111Z,65.70
2022-09-30T15:45:06.204Z,66.24
2022-09-30T15:47:54.936Z,66.73
2022-09-30T15:50:43.318Z,66.82
2022-09-30T15:53:20.013Z,67.30
2022-09-30T15:55:50.447Z,67.42
2022-09-30T15:58:37.816Z,67.19
2022-09-30T16:01:21.292Z,67.26
2022-09-30T16:03:54.610Z,67.05
2022-09-30T16:06:31.568Z,67.80
2022-09-30T16:09:02.168Z,68.99
2022-09-30T16:11:34.678Z,69.51
2022-09-30T16:14:05.460Z,70.26
2022-09-30T16:16:36.028Z,71.07
2022-09-30T16:19:06.460Z,70.86
2022-09-30T16:21:47.097Z,70.32
2022-09-30T16:24:48.902Z,70.77
2022-09-30T16:27:37.569Z,71.30
2022-09-30T16:30:07.423Z,72.01
2022-09-30T16:32:39.584Z,72.55
2022-09-30T16:35:17.013Z,72.70
2022-09-30T16:37:45.013Z,72.46
2022-09-30T16:40:24.328Z,72.59
2022-09-30T16:42:54.684Z,72.55
2022-09-30T16:45:23.042Z,73.08
2022-09-30T16:47:50.668Z,73.76
2022-09-30T16:50:25.343Z,74.38
2022-09-30T16:52:52.946Z,74.60
2022-09-30T16:55:20.482Z,74.93
2022-09-30T16:57:48.168Z,75.65
2022-09-30T17:00:17.975Z,76.06
2022-09-30T17:02:47.389Z,77.09
2022-09-30T17:05:18.493Z,77.78
2022-09-30T17:07:48.662Z,78.13
2022-09-30T17:10:22.354Z,78.82
2022-09-30T17:12:51.104Z,79.24
2022-09-30T17:15:19.548Z,79.23
2022-09-30T17:17:47.530Z,79.84
2022-09-30T17:20:15.630Z,80.84
2022-09-30T17:22:44.065Z,81.71
2022-09-30T17:25:13.005Z,82.09
2022-09-30T17:27:40.680Z,82.88
2022-09-30T17:30:09.640Z,82.91
2022-09-30T17:32:37.264Z,83.05
2022-09-30T17:35:05.953Z,83.48
2022-09-30T17:37:33.495Z,84.00
2022-09-30T17:40:01.534Z,84.80
2022-09-30T17:42:48.215Z,85.17
2022-09-30T17:45:15.983Z,85.60
2022-09-30T17:47:43.787Z,86.00
2022-09-30T17:50:12.778Z,86.55
2022-09-30T17:52:40.366Z,87.43
2022-09-30T17:55:08.307Z,87.57
2022-09-30T17:57:39.869Z,88.09
2022-09-30T18:00:09.085Z,88.66
2022-09-30T18:02:38.450Z,88.88
2022-09-30T18:05:06.772Z,88.83
2022-09-30T18:07:34.378Z,89.38
2022-09-30T18:10:02.455Z,89.78
2022-09-30T18:12:29.993Z,90.43
2022-09-30T18:14:59.695Z,90.61
2022-09-30T18:17:28.632Z,90.88
2022-09-30T18:19:56.267Z,91.40
2022-09-30T18:22:23.940Z,91.45
2022-09-30T18:25:09.007Z,91.91
2022-09-30T18:27:36.675Z,92.03
2022-09-30T18:30:06.783Z,91.88
2022-09-30T18:32:34.401Z,92.03
2022-09-30T18:35:01.948Z,92.48
2022-09-30T18:37:33.161Z,92.21
2022-09-30T18:40:00.857Z,92.30
2022-09-30T18:42:30.171Z,92.60
2022-09-30T18:44:57.755Z,92.26
2022-09-30T18:47:27.235Z,92.44
2022-09-30T18:49:54.895Z,92.66
2022-09-30T18:52:22.490Z,92.84
2022-09-30T18:54:50.172Z,92.66
2022-09-30T18:57:17.876Z,93.06
2022-09-30T18:59:45.603Z,93.31
2022-09-30T19:02:15.326Z,93.21
2022-09-30T19:04:44.312Z,93.38
2022-09-30T19:07:12.039Z,93.07
2022-09-30T19:09:40.962Z,93.38
2022-09-30T19:12:08.676Z,93.20
2022-09-30T19:14:37.384Z,93.26
2022-09-30T19:17:04.953Z,93.44
2022-09-30T19:19:32.931Z,93.94
2022-09-30T19:22:02.920Z,94.40
2022-09-30T19:24:30.483Z,94.49
2022-09-30T19:26:58.137Z,94.50
2022-09-30T19:29:25.940Z,94.36
2022-09-30T19:31:53.644Z,94.07
2022-09-30T19:34:30.791Z,93.81
2022-09-30T19:37:00.086Z,93.60
2022-09-30T19:39:40.762Z,93.20
2022-09-30T19:45:04.194Z,92.71
2022-09-30T19:47:34.309Z,92.35
2022-09-30T19:50:02.122Z,91.99
2022-09-30T19:52:30.095Z,91.97
2022-09-30T19:55:08.625Z,91.82
2022-09-30T19:57:42.391Z,91.42
2022-09-30T20:00:11.100Z,91.53
2022-09-30T20:02:39.325Z,91.21
2022-09-30T20:05:08.108Z,91.02
2022-09-30T20:07:35.933Z,91.29
2022-09-30T20:10:05.482Z,91.42
2022-09-30T20:12:33.135Z,91.28
2022-09-30T20:15:18.224Z,91.16
2022-09-30T20:17:45.853Z,91.34
2022-09-30T20:20:30.796Z,91.45
2022-09-30T20:23:01.010Z,91.70
2022-09-30T20:25:30.466Z,91.57
2022-09-30T20:27:58.091Z,91.61
2022-09-30T20:30:26.880Z,91.74
2022-09-30T20:32:54.572Z,91.48
2022-09-30T20:35:22.281Z,91.41
2022-09-30T20:37:50.019Z,91.95
2022-09-30T20:40:17.906Z,91.88
2022-09-30T20:42:46.894Z,92.02
2022-09-30T20:45:17.969Z,91.81
2022-09-30T20:47:47.142Z,92.00
2022-09-30T20:50:34.618Z,92.19
2022-09-30T20:53:04.176Z,91.96
2022-09-30T20:55:34.738Z,92.06
2022-09-30T20:58:04.605Z,92.22
2022-09-30T21:00:32.755Z,92.53
2022-09-30T21:03:00.423Z,92.40
2022-09-30T21:05:28.084Z,92.07
2022-09-30T21:07:55.943Z,92.04
2022-09-30T21:10:23.608Z,91.89
2022-09-30T21:12:51.171Z,92.18
2022-09-30T21:15:20.116Z,91.63
2022-09-30T21:17:47.681Z,91.83
2022-09-30T21:20:15.451Z,91.58
2022-09-30T21:22:43.102Z,91.85
2022-09-30T21:25:11.796Z,91.81
2022-09-30T21:27:40.296Z,91.58
2022-09-30T21:30:08.887Z,91.73
2022-09-30T21:32:39.232Z,91.34
2022-09-30T21:35:07.574Z,91.51
2022-09-30T21:37:35.161Z,91.35
2022-09-30T21:40:02.881Z,90.51
2022-09-30T21:42:30.628Z,90.67
2022-09-30T21:44:58.304Z,90.10
2022-09-30T21:47:25.827Z,89.99
2022-09-30T21:49:54.695Z,89.87
2022-09-30T21:52:22.926Z,89.86
2022-09-30T21:54:52.042Z,89.34
2022-09-30T21:57:19.659Z,89.45
2022-09-30T21:59:50.339Z,89.33
2022-09-30T22:02:18.165Z,89.12
2022-09-30T22:04:45.736Z,88.71
2022-09-30T22:07:16.027Z,88.65
2022-09-30T22:09:43.995Z,88.19
2022-09-30T22:12:11.734Z,88.14
2022-09-30T22:14:39.353Z,88.17
2022-09-30T22:17:10.037Z,88.25
2022-09-30T22:19:38.848Z,88.33
2022-09-30T22:22:06.461Z,87.83
2022-09-30T22:24:36.759Z,88.11
2022-09-30T22:27:05.377Z,86.86
2022-09-30T22:29:32.920Z,86.20
2022-09-30T22:32:02.214Z,86.12
2022-09-30T22:34:47.493Z,86.12
2022-09-30T22:37:32.918Z,86.25
2022-09-30T22:40:02.253Z,86.28
2022-09-30T22:42:30.167Z,86.21
2022-09-30T22:44:57.702Z,86.21
2022-09-30T22:47:25.251Z,85.98
2022-09-30T22:49:52.841Z,86.00
2022-09-30T22:52:20.414Z,85.87
2022-09-30T22:54:47.971Z,85.55
2022-09-30T22:57:17.072Z,85.50
2022-09-30T22:59:46.484Z,85.42
2022-09-30T23:02:15.638Z,85.54
2022-09-30T23:04:44.033Z,85.34
2022-09-30T23:07:11.698Z,85.63
2022-09-30T23:09:39.271Z,85.58
2022-09-30T23:12:06.943Z,85.16
2022-09-30T23:14:35.848Z,84.84
2022-09-30T23:17:03.573Z,84.94
2022-09-30T23:19:31.204Z,84.83
2022-09-30T23:21:58.948Z,84.59
2022-09-30T23:24:27.814Z,84.91
2022-09-30T23:26:55.533Z,84.78
2022-09-30T23:29:23.267Z,84.70
2022-09-30T23:32:44.008Z,84.67
2022-09-30T23:35:14.096Z,84.33
2022-09-30T23:37:41.734Z,84.64
2022-09-30T23:40:10.257Z,84.44
2022-09-30T23:42:37.852Z,84.11
2022-09-30T23:45:05.914Z,83.57
2022-09-30T23:47:34.450Z,84.05
2022-09-30T23:50:02.247Z,83.87
2022-09-30T23:52:31.331Z,83.87
2022-09-30T23:54:58.958Z,84.33
2022-09-30T23:57:26.717Z,84.00
2022-09-30T23:59:54.332Z,84.33
